createdAt,value
2022-10-13T00:00:22.224Z,0.00
2022-10-13T00:01:22.224Z,0.00
2022-10-13T00:02:22.232Z,0.00
2022-10-13T00:03:23.225Z,0.00
2022-10-13T00:04:22.193Z,0.00
2022-10-13T00:05:22.185Z,0.00
2022-10-13T00:06:22.184Z,0.00
2022-10-13T00:07:22.165Z,0.00
2022-10-13T00:08:22.184Z,0.00
2022-10-13T00:09:22.167Z,0.00
2022-10-13T00:10:22.147Z,0.00
2022-10-13T00:11:22.154Z,0.00
2022-10-13T00:12:22.138Z,0.00
2022-10-13T00:13:22.123Z,0.00
2022-10-13T00:14:22.123Z,0.00
2022-10-13T00:15:22.115Z,0.00
2022-10-13T00:16:22.126Z,0.00
2022-10-13T00:17:22.122Z,0.00
2022-10-13T00:18:22.092Z,0.00
2022-10-13T00:19:22.087Z,0.00
2022-10-13T00:20:22.080Z,0.00
2022-10-13T00:21:22.076Z,0.00
2022-10-13T00:22:22.087Z,0.00
2022-10-13T00:23:22.059Z,0.00
2022-10-13T00:24:22.059Z,0.00
2022-10-13T00:25:22.045Z,0.00
2022-10-13T00:26:22.067Z,0.00
2022-10-13T00:27:22.023Z,0.00
2022-10-13T00:28:22.076Z,0.00
2022-10-13T00:29:22.017Z,0.00
2022-10-13T00:30:22.025Z,0.00
2022-10-13T00:31:21.995Z,0.00
2022-10-13T00:32:22.067Z,0.00
2022-10-13T00:33:22.011Z,0.00
2022-10-13T00:34:21.971Z,0.00
2022-10-13T00:35:21.976Z,0.00
2022-10-13T00:36:21.984Z,0.00
2022-10-13T00:37:21.948Z,0.00
2022-10-13T00:38:21.967Z,0.00
2022-10-13T00:39:21.944Z,0.00
2022-10-13T00:40:21.939Z,0.00
2022-10-13T00:41:21.939Z,0.00
2022-10-13T00:42:21.935Z,0.00
2022-10-13T00:43:21.939Z,0.00
2022-10-13T00:44:21.904Z,0.00
2022-10-13T00:45:21.914Z,0.00
2022-10-13T00:46:21.891Z,0.00
2022-10-13T00:47:21.884Z,0.00
2022-10-13T00:48:21.913Z,0.00
2022-10-13T00:49:21.879Z,0.00
2022-10-13T00:50:21.867Z,0.00
2022-10-13T00:51:21.864Z,0.00
2022-10-13T00:52:21.847Z,0.00
2022-10-13T00:53:21.847Z,0.00
2022-10-13T00:54:21.846Z,0.00
2022-10-13T00:55:21.835Z,0.00
2022-10-13T00:56:21.831Z,0.00
2022-10-13T00:57:21.819Z,0.00
2022-10-13T00:58:21.832Z,0.00
2022-10-13T00:59:21.821Z,0.00
2022-10-13T01:00:21.799Z,0.00
2022-10-13T01:01:21.796Z,0.00
2022-10-13T01:02:22.029Z,0.00
2022-10-13T01:03:21.795Z,0.00
2022-10-13T01:04:21.772Z,0.00
2022-10-13T01:05:21.795Z,0.00
2022-10-13T01:06:23.825Z,0.00
2022-10-13T01:07:22.754Z,0.00
2022-10-13T01:08:21.751Z,0.00
2022-10-13T01:09:21.751Z,0.00
2022-10-13T01:10:21.759Z,0.00
2022-10-13T01:11:21.727Z,0.00
2022-10-13T01:12:21.958Z,0.00
2022-10-13T01:13:21.718Z,0.00
2022-10-13T01:14:21.704Z,0.00
2022-10-13T01:15:21.691Z,0.00
2022-10-13T01:16:22.712Z,0.00
2022-10-13T01:17:21.692Z,0.00
2022-10-13T01:18:21.676Z,0.00
2022-10-13T01:19:21.664Z,0.00
2022-10-13T01:20:22.660Z,0.00
2022-10-13T01:21:21.672Z,0.00
2022-10-13T01:22:21.909Z,0.00
2022-10-13T01:23:21.640Z,0.00
2022-10-13T01:24:21.647Z,0.00
2022-10-13T01:25:21.658Z,0.00
2022-10-13T01:26:21.639Z,0.00
2022-10-13T01:27:21.621Z,0.00
2022-10-13T01:28:21.618Z,0.00
2022-10-13T01:29:21.595Z,0.00
2022-10-13T01:30:21.599Z,0.00
2022-10-13T01:31:21.598Z,0.00
2022-10-13T01:32:21.891Z,0.00
2022-10-13T01:33:21.578Z,0.00
2022-10-13T01:34:21.567Z,0.00
2022-10-13T01:35:21.550Z,0.00
2022-10-13T01:36:21.617Z,0.00
2022-10-13T01:37:21.552Z,0.00
2022-10-13T01:38:21.534Z,0.00
2022-10-13T01:39:21.535Z,0.00
2022-10-13T01:40:21.521Z,0.00
2022-10-13T01:41:21.504Z,0.00
2022-10-13T01:42:22.507Z,0.00
2022-10-13T01:43:21.495Z,0.00
2022-10-13T01:44:21.495Z,0.00
2022-10-13T01:45:21.487Z,0.00
2022-10-13T01:46:21.479Z,0.00
2022-10-13T01:47:21.484Z,0.00
2022-10-13T01:48:21.474Z,0.00
2022-10-13T01:49:21.458Z,0.00
2022-10-13T01:50:21.455Z,0.00
2022-10-13T01:51:21.447Z,0.00
2022-10-13T01:52:21.705Z,0.00
2022-10-13T01:53:21.438Z,0.00
2022-10-13T01:54:21.438Z,0.00
2022-10-13T01:55:21.423Z,0.00
2022-10-13T01:56:21.434Z,0.00
2022-10-13T01:57:21.407Z,0.00
2022-10-13T01:58:21.400Z,0.00
2022-10-13T01:59:21.396Z,0.00
2022-10-13T02:00:21.392Z,0.00
2022-10-13T02:01:21.404Z,0.00
2022-10-13T02:02:21.675Z,0.00
2022-10-13T02:03:21.371Z,0.00
2022-10-13T02:04:21.363Z,0.00
2022-10-13T02:05:21.360Z,0.00
2022-10-13T02:06:21.355Z,0.00
2022-10-13T02:07:21.339Z,0.00
2022-10-13T02:08:21.330Z,0.00
2022-10-13T02:09:21.323Z,0.00
2022-10-13T02:10:21.318Z,0.00
2022-10-13T02:11:21.332Z,0.00
2022-10-13T02:12:21.631Z,0.00
2022-10-13T02:13:21.300Z,0.00
2022-10-13T02:14:21.362Z,0.00
2022-10-13T02:15:21.294Z,0.00
2022-10-13T02:16:21.278Z,0.00
2022-10-13T02:17:21.315Z,0.00
2022-10-13T02:18:21.264Z,0.00
2022-10-13T02:19:21.254Z,0.00
2022-10-13T02:20:21.247Z,0.00
2022-10-13T02:21:21.232Z,0.00
2022-10-13T02:22:21.517Z,0.00
2022-10-13T02:23:21.226Z,0.00
2022-10-13T02:24:21.221Z,0.00
2022-10-13T02:25:21.194Z,0.00
2022-10-13T02:26:22.195Z,0.00
2022-10-13T02:27:21.210Z,0.00
2022-10-13T02:28:21.243Z,0.00
2022-10-13T02:29:21.199Z,0.00
2022-10-13T02:30:21.175Z,0.00
2022-10-13T02:31:21.162Z,0.00
2022-10-13T02:32:21.598Z,0.00
2022-10-13T02:33:21.206Z,0.00
2022-10-13T02:34:21.144Z,0.00
2022-10-13T02:35:21.140Z,0.00
2022-10-13T02:36:21.139Z,0.00
2022-10-13T02:37:21.126Z,0.00
2022-10-13T02:38:21.133Z,0.00
2022-10-13T02:39:21.119Z,0.00
2022-10-13T02:40:21.179Z,0.00
2022-10-13T02:41:21.098Z,0.00
2022-10-13T02:42:21.492Z,0.00
2022-10-13T02:43:21.090Z,0.00
2022-10-13T02:44:21.092Z,0.00
2022-10-13T02:45:21.066Z,0.00
2022-10-13T02:46:21.058Z,0.00
2022-10-13T02:47:21.059Z,0.00
2022-10-13T02:48:21.058Z,0.00
2022-10-13T02:49:21.046Z,0.00
2022-10-13T02:50:21.031Z,0.00
2022-10-13T02:51:21.022Z,0.00
2022-10-13T02:52:21.476Z,0.00
2022-10-13T02:53:21.051Z,0.00
2022-10-13T02:54:21.015Z,0.00
2022-10-13T02:55:21.002Z,0.00
2022-10-13T02:56:21.002Z,0.00
2022-10-13T02:57:21.986Z,0.00
2022-10-13T02:58:20.979Z,0.00
2022-10-13T02:59:20.974Z,0.00
2022-10-13T03:00:21.064Z,0.00
2022-10-13T03:01:20.965Z,0.00
2022-10-13T03:02:21.457Z,0.00
2022-10-13T03:03:20.954Z,0.00
2022-10-13T03:04:20.934Z,0.00
2022-10-13T03:05:20.971Z,0.00
2022-10-13T03:06:20.938Z,0.00
2022-10-13T03:07:20.918Z,0.00
2022-10-13T03:08:20.918Z,0.00
2022-10-13T03:09:20.906Z,0.00
2022-10-13T03:10:20.902Z,0.00
2022-10-13T03:11:20.903Z,0.00
2022-10-13T03:12:21.302Z,0.00
2022-10-13T03:13:20.870Z,0.00
2022-10-13T03:14:20.880Z,0.00
2022-10-13T03:15:20.866Z,0.00
2022-10-13T03:16:20.903Z,0.00
2022-10-13T03:17:20.850Z,0.00
2022-10-13T03:18:20.859Z,0.00
2022-10-13T03:19:20.826Z,0.00
2022-10-13T03:20:20.831Z,0.00
2022-10-13T03:21:20.823Z,0.00
2022-10-13T03:22:21.143Z,0.00
2022-10-13T03:23:20.822Z,0.00
2022-10-13T03:24:20.798Z,0.00
2022-10-13T03:25:20.788Z,0.00
2022-10-13T03:26:20.794Z,0.00
2022-10-13T03:27:20.779Z,0.00
2022-10-13T03:28:20.805Z,0.00
2022-10-13T03:29:20.759Z,0.00
2022-10-13T03:30:20.811Z,0.00
2022-10-13T03:31:20.735Z,0.00
2022-10-13T03:32:22.144Z,0.00
2022-10-13T03:33:20.751Z,0.00
2022-10-13T03:34:20.727Z,0.00
2022-10-13T03:35:20.727Z,0.00
2022-10-13T03:36:20.719Z,0.00
2022-10-13T03:37:20.715Z,0.00
2022-10-13T03:38:20.711Z,0.00
2022-10-13T03:39:20.688Z,0.00
2022-10-13T03:40:20.692Z,0.00
2022-10-13T03:41:20.690Z,0.00
2022-10-13T03:42:20.945Z,0.00
2022-10-13T03:43:20.679Z,0.00
2022-10-13T03:44:20.660Z,0.00
2022-10-13T03:45:20.659Z,0.00
2022-10-13T03:46:20.652Z,0.00
2022-10-13T03:47:20.744Z,0.00
2022-10-13T03:48:20.653Z,0.00
2022-10-13T03:49:20.615Z,0.00
2022-10-13T03:50:20.611Z,0.00
2022-10-13T03:51:21.352Z,0.00
2022-10-13T03:52:20.946Z,0.00
2022-10-13T03:53:20.615Z,0.00
2022-10-13T03:54:20.631Z,0.00
2022-10-13T03:55:20.579Z,0.00
2022-10-13T03:56:20.581Z,0.00
2022-10-13T03:57:20.568Z,0.00
2022-10-13T03:58:20.557Z,0.00
2022-10-13T03:59:20.555Z,0.00
2022-10-13T04:00:20.566Z,0.00
2022-10-13T04:01:20.608Z,0.00
2022-10-13T04:02:20.850Z,0.00
2022-10-13T04:03:20.576Z,0.00
2022-10-13T04:04:20.511Z,0.00
2022-10-13T04:05:20.523Z,0.00
2022-10-13T04:06:20.507Z,0.00
2022-10-13T04:07:20.493Z,0.00
2022-10-13T04:08:20.503Z,0.00
2022-10-13T04:09:20.516Z,0.00
2022-10-13T04:10:20.479Z,0.00
2022-10-13T04:11:20.467Z,0.00
2022-10-13T04:12:21.258Z,0.00
2022-10-13T04:13:21.451Z,0.00
2022-10-13T04:14:20.475Z,0.00
2022-10-13T04:15:20.449Z,0.00
2022-10-13T04:16:20.435Z,0.00
2022-10-13T04:17:20.432Z,0.00
2022-10-13T04:18:20.483Z,0.00
2022-10-13T04:19:20.432Z,0.00
2022-10-13T04:20:20.491Z,0.00
2022-10-13T04:21:20.411Z,0.00
2022-10-13T04:22:20.798Z,0.00
2022-10-13T04:23:20.395Z,0.00
2022-10-13T04:24:20.383Z,0.00
2022-10-13T04:25:20.392Z,0.00
2022-10-13T04:26:20.376Z,0.00
2022-10-13T04:27:20.385Z,0.00
2022-10-13T04:28:20.415Z,0.00
2022-10-13T04:29:20.348Z,0.00
2022-10-13T04:30:20.362Z,0.00
2022-10-13T04:31:20.326Z,0.00
2022-10-13T04:32:20.602Z,0.00
2022-10-13T04:33:20.315Z,0.00
2022-10-13T04:34:20.320Z,0.00
2022-10-13T04:35:20.313Z,0.00
2022-10-13T04:36:20.319Z,0.00
2022-10-13T04:37:20.292Z,0.00
2022-10-13T04:38:20.272Z,0.00
2022-10-13T04:39:20.264Z,0.00
2022-10-13T04:40:20.284Z,0.00
2022-10-13T04:41:20.254Z,0.00
2022-10-13T04:42:20.610Z,0.00
2022-10-13T04:43:20.249Z,0.00
2022-10-13T04:44:20.238Z,0.00
2022-10-13T04:45:20.256Z,0.00
2022-10-13T04:46:20.220Z,0.00
2022-10-13T04:47:20.385Z,0.00
2022-10-13T04:48:20.209Z,0.00
2022-10-13T04:49:20.212Z,0.00
2022-10-13T04:50:20.192Z,0.00
2022-10-13T04:51:20.200Z,0.00
2022-10-13T04:52:20.468Z,0.00
2022-10-13T04:53:20.240Z,0.00
2022-10-13T04:54:20.164Z,0.00
2022-10-13T04:55:20.156Z,0.00
2022-10-13T04:56:20.154Z,0.00
2022-10-13T04:57:20.143Z,0.00
2022-10-13T04:58:20.141Z,0.00
2022-10-13T04:59:20.143Z,0.00
2022-10-13T05:00:20.122Z,0.00
2022-10-13T05:01:22.150Z,0.00
2022-10-13T05:02:21.643Z,0.00
2022-10-13T05:03:20.101Z,0.00
2022-10-13T05:04:20.097Z,0.00
2022-10-13T05:05:20.104Z,0.00
2022-10-13T05:06:20.083Z,0.00
2022-10-13T05:07:21.072Z,0.00
2022-10-13T05:08:20.105Z,0.00
2022-10-13T05:09:20.063Z,0.00
2022-10-13T05:10:20.056Z,0.00
2022-10-13T05:11:20.096Z,0.00
2022-10-13T05:12:20.304Z,0.00
2022-10-13T05:13:20.036Z,0.00
2022-10-13T05:14:20.047Z,0.00
2022-10-13T05:15:20.024Z,0.00
2022-10-13T05:16:20.093Z,0.00
2022-10-13T05:17:20.004Z,0.00
2022-10-13T05:18:20.007Z,0.00
2022-10-13T05:19:20.000Z,0.00
2022-10-13T05:20:20.012Z,0.00
2022-10-13T05:21:19.980Z,0.00
2022-10-13T05:22:20.264Z,0.00
2022-10-13T05:23:19.971Z,0.00
2022-10-13T05:24:19.964Z,0.00
2022-10-13T05:25:19.944Z,0.00
2022-10-13T05:26:19.948Z,0.00
2022-10-13T05:27:19.997Z,0.00
2022-10-13T05:28:20.016Z,0.00
2022-10-13T05:29:19.930Z,0.00
2022-10-13T05:30:19.924Z,0.00
2022-10-13T05:31:19.924Z,0.00
2022-10-13T05:32:20.298Z,0.00
2022-10-13T05:33:19.916Z,0.00
2022-10-13T05:34:19.892Z,0.00
2022-10-13T05:35:19.896Z,0.00
2022-10-13T05:36:19.955Z,0.00
2022-10-13T05:37:19.896Z,0.00
2022-10-13T05:38:25.185Z,0.00
2022-10-13T05:39:21.864Z,0.00
2022-10-13T05:40:19.872Z,0.00
2022-10-13T05:41:19.896Z,0.00
2022-10-13T05:42:20.252Z,0.00
2022-10-13T05:43:19.828Z,0.00
2022-10-13T05:44:19.833Z,0.00
2022-10-13T05:45:19.888Z,0.00
2022-10-13T05:46:19.823Z,0.00
2022-10-13T05:47:19.849Z,0.00
2022-10-13T05:48:19.805Z,0.00
2022-10-13T05:49:19.801Z,0.00
2022-10-13T05:50:19.791Z,0.00
2022-10-13T05:51:19.784Z,0.00
2022-10-13T05:52:20.035Z,0.00
2022-10-13T05:53:19.769Z,0.00
2022-10-13T05:54:19.772Z,0.00
2022-10-13T05:55:19.751Z,0.00
2022-10-13T05:56:19.764Z,0.00
2022-10-13T05:57:19.736Z,5.62
2022-10-13T05:58:19.739Z,5.62
2022-10-13T05:59:23.307Z,5.62
2022-10-13T06:00:20.728Z,5.62
2022-10-13T06:01:19.712Z,5.62
2022-10-13T06:02:20.033Z,5.62
2022-10-13T06:03:19.727Z,5.62
2022-10-13T06:04:19.697Z,5.62
2022-10-13T06:05:19.687Z,5.62
2022-10-13T06:06:19.684Z,5.62
2022-10-13T06:07:19.683Z,5.62
2022-10-13T06:08:19.819Z,5.62
2022-10-13T06:09:19.659Z,11.25
2022-10-13T06:10:19.711Z,11.25
2022-10-13T06:11:19.644Z,11.25
2022-10-13T06:12:20.048Z,11.25
2022-10-13T06:13:19.635Z,11.25
2022-10-13T06:14:19.640Z,11.25
2022-10-13T06:15:20.305Z,11.25
2022-10-13T06:16:19.614Z,11.25
2022-10-13T06:17:19.603Z,11.25
2022-10-13T06:18:19.604Z,11.25
2022-10-13T06:19:19.620Z,11.25
2022-10-13T06:20:19.587Z,11.25
2022-10-13T06:21:19.578Z,11.25
2022-10-13T06:22:19.735Z,11.25
2022-10-13T06:23:19.570Z,11.25
2022-10-13T06:24:19.607Z,11.25
2022-10-13T06:25:19.548Z,11.25
2022-10-13T06:26:19.540Z,11.25
2022-10-13T06:27:19.531Z,11.25
2022-10-13T06:28:19.582Z,11.25
2022-10-13T06:29:19.511Z,11.25
2022-10-13T06:30:19.522Z,11.25
2022-10-13T06:31:19.511Z,16.88
2022-10-13T06:32:19.770Z,16.88
2022-10-13T06:33:19.495Z,16.88
2022-10-13T06:34:19.488Z,16.88
2022-10-13T06:35:19.491Z,16.88
2022-10-13T06:36:19.475Z,16.88
2022-10-13T06:37:23.344Z,16.88
2022-10-13T06:38:20.451Z,16.88
2022-10-13T06:39:19.459Z,16.88
2022-10-13T06:40:19.452Z,16.88
2022-10-13T06:41:19.439Z,16.88
2022-10-13T06:42:19.731Z,16.88
2022-10-13T06:43:19.428Z,22.50
2022-10-13T06:44:19.420Z,22.50
2022-10-13T06:45:19.419Z,22.50
2022-10-13T06:46:19.415Z,22.50
2022-10-13T06:47:20.319Z,22.50
2022-10-13T06:48:19.426Z,22.50
2022-10-13T06:49:19.384Z,22.50
2022-10-13T06:50:19.376Z,22.50
2022-10-13T06:51:19.378Z,22.50
2022-10-13T06:52:19.675Z,22.50
2022-10-13T06:53:19.348Z,22.50
2022-10-13T06:54:19.344Z,22.50
2022-10-13T06:55:19.346Z,22.50
2022-10-13T06:56:19.349Z,22.50
2022-10-13T06:57:19.318Z,22.50
2022-10-13T06:58:19.315Z,22.50
2022-10-13T06:59:19.322Z,22.50
2022-10-13T07:00:19.303Z,22.50
2022-10-13T07:01:19.293Z,22.50
2022-10-13T07:02:19.529Z,22.50
2022-10-13T07:03:19.288Z,22.50
2022-10-13T07:04:19.271Z,22.50
2022-10-13T07:05:19.267Z,28.12
2022-10-13T07:06:19.263Z,28.12
2022-10-13T07:07:19.260Z,28.12
2022-10-13T07:08:19.267Z,33.75
2022-10-13T07:09:19.244Z,33.75
2022-10-13T07:10:19.206Z,39.38
2022-10-13T07:11:20.239Z,39.38
2022-10-13T07:12:19.430Z,39.38
2022-10-13T07:13:19.243Z,39.38
2022-10-13T07:14:19.199Z,39.38
2022-10-13T07:15:19.195Z,45.00
2022-10-13T07:16:19.191Z,45.00
2022-10-13T07:17:19.528Z,50.62
2022-10-13T07:18:19.176Z,50.62
2022-10-13T07:19:19.171Z,56.25
2022-10-13T07:20:19.167Z,61.88
2022-10-13T07:21:19.151Z,61.88
2022-10-13T07:22:19.167Z,61.88
2022-10-13T07:23:19.131Z,67.50
2022-10-13T07:24:19.135Z,67.50
2022-10-13T07:25:19.126Z,67.50
2022-10-13T07:26:19.118Z,78.75
2022-10-13T07:27:19.127Z,78.75
2022-10-13T07:28:19.154Z,78.75
2022-10-13T07:29:19.105Z,73.12
2022-10-13T07:30:19.093Z,73.12
2022-10-13T07:31:19.085Z,78.75
2022-10-13T07:32:19.069Z,78.75
2022-10-13T07:33:19.079Z,84.38
2022-10-13T07:34:19.065Z,101.25
2022-10-13T07:35:19.066Z,95.62
2022-10-13T07:36:19.057Z,90.00
2022-10-13T07:37:19.319Z,78.75
2022-10-13T07:38:19.042Z,78.75
2022-10-13T07:39:19.041Z,73.12
2022-10-13T07:40:19.032Z,73.12
2022-10-13T07:41:19.016Z,78.75
2022-10-13T07:42:19.012Z,78.75
2022-10-13T07:43:19.011Z,78.75
2022-10-13T07:44:19.079Z,78.75
2022-10-13T07:45:18.991Z,73.12
2022-10-13T07:46:18.991Z,73.12
2022-10-13T07:47:19.265Z,73.12
2022-10-13T07:48:18.993Z,73.12
2022-10-13T07:49:18.983Z,73.12
2022-10-13T07:50:18.951Z,73.12
2022-10-13T07:51:18.952Z,73.12
2022-10-13T07:52:19.162Z,73.12
2022-10-13T07:53:18.936Z,73.12
2022-10-13T07:54:21.597Z,78.75
2022-10-13T07:55:18.931Z,78.75
2022-10-13T07:56:18.916Z,84.38
2022-10-13T07:57:18.903Z,90.00
2022-10-13T07:58:18.900Z,90.00
2022-10-13T07:59:18.923Z,90.00
2022-10-13T08:00:19.011Z,101.25
2022-10-13T08:01:18.937Z,101.25
2022-10-13T08:02:19.180Z,101.25
2022-10-13T08:03:18.863Z,95.62
2022-10-13T08:04:18.869Z,95.62
2022-10-13T08:05:18.851Z,90.00
2022-10-13T08:06:18.852Z,95.62
2022-10-13T08:07:19.080Z,95.62
2022-10-13T08:08:18.841Z,95.62
2022-10-13T08:09:18.819Z,95.62
2022-10-13T08:10:18.831Z,90.00
2022-10-13T08:11:18.810Z,95.62
2022-10-13T08:12:19.125Z,95.62
2022-10-13T08:13:18.796Z,95.62
2022-10-13T08:14:18.788Z,112.50
2022-10-13T08:15:18.815Z,112.50
2022-10-13T08:16:18.778Z,112.50
2022-10-13T08:17:19.021Z,112.50
2022-10-13T08:18:18.761Z,106.88
2022-10-13T08:19:18.752Z,95.62
2022-10-13T08:20:18.796Z,90.00
2022-10-13T08:22:23.658Z,73.12
2022-10-13T08:23:19.731Z,73.12
2022-10-13T08:24:18.717Z,78.75
2022-10-13T08:25:18.751Z,78.75
2022-10-13T08:26:18.703Z,78.75
2022-10-13T08:27:18.903Z,78.75
2022-10-13T08:28:18.698Z,73.12
2022-10-13T08:29:23.312Z,78.75
2022-10-13T08:30:20.904Z,84.38
2022-10-13T08:31:18.945Z,106.88
2022-10-13T08:32:19.029Z,95.62
2022-10-13T08:33:18.659Z,95.62
2022-10-13T08:34:18.651Z,90.00
2022-10-13T08:35:18.648Z,90.00
2022-10-13T08:36:18.651Z,84.38
2022-10-13T08:37:18.645Z,78.75
2022-10-13T08:38:18.652Z,78.75
2022-10-13T08:39:18.619Z,84.38
2022-10-13T08:40:18.598Z,95.62
2022-10-13T08:41:18.622Z,95.62
2022-10-13T08:42:18.846Z,101.25
2022-10-13T08:43:18.590Z,123.75
2022-10-13T08:45:06.390Z,140.62
2022-10-13T08:46:20.583Z,191.25
2022-10-13T08:47:18.558Z,213.75
2022-10-13T08:48:18.556Z,264.38
2022-10-13T08:49:18.542Z,253.12
2022-10-13T08:50:18.550Z,303.75
2022-10-13T08:51:18.546Z,281.25
2022-10-13T08:52:19.031Z,416.25
2022-10-13T08:53:18.534Z,371.25
2022-10-13T08:54:18.518Z,360.00
2022-10-13T08:55:18.518Z,309.38
2022-10-13T08:56:18.522Z,298.12
2022-10-13T08:57:18.798Z,315.00
2022-10-13T08:58:18.500Z,309.38
2022-10-13T08:59:18.484Z,495.00
2022-10-13T09:00:18.473Z,461.25
2022-10-13T09:01:18.556Z,433.12
2022-10-13T09:02:18.483Z,360.00
2022-10-13T09:03:18.465Z,478.12
2022-10-13T09:04:18.450Z,421.88
2022-10-13T09:05:18.442Z,382.50
2022-10-13T09:06:18.450Z,466.88
2022-10-13T09:07:18.803Z,298.12
2022-10-13T09:08:18.439Z,270.00
2022-10-13T09:09:18.418Z,298.12
2022-10-13T09:10:18.429Z,281.25
2022-10-13T09:11:18.411Z,270.00
2022-10-13T09:12:18.655Z,264.38
2022-10-13T09:13:18.417Z,236.25
2022-10-13T09:14:18.388Z,191.25
2022-10-13T09:15:18.382Z,168.75
2022-10-13T09:16:18.390Z,157.50
2022-10-13T09:17:18.385Z,236.25
2022-10-13T09:18:18.382Z,213.75
2022-10-13T09:19:18.362Z,174.38
2022-10-13T09:20:18.358Z,135.00
2022-10-13T09:21:18.366Z,112.50
2022-10-13T09:22:18.757Z,95.62
2022-10-13T09:23:18.342Z,95.62
2022-10-13T09:24:18.339Z,123.75
2022-10-13T09:25:18.322Z,168.75
2022-10-13T09:26:18.344Z,168.75
2022-10-13T09:27:18.306Z,146.25
2022-10-13T09:28:18.329Z,140.62
2022-10-13T09:29:18.302Z,135.00
2022-10-13T09:30:18.295Z,140.62
2022-10-13T09:31:18.302Z,151.88
2022-10-13T09:32:18.675Z,163.12
2022-10-13T09:33:18.279Z,157.50
2022-10-13T09:34:18.279Z,146.25
2022-10-13T09:35:18.261Z,135.00
2022-10-13T09:36:18.262Z,135.00
2022-10-13T09:37:18.255Z,151.88
2022-10-13T09:38:18.238Z,168.75
2022-10-13T09:39:18.257Z,191.25
2022-10-13T09:40:18.230Z,225.00
2022-10-13T09:41:18.234Z,225.00
2022-10-13T09:42:18.626Z,219.38
2022-10-13T09:43:18.209Z,146.25
2022-10-13T09:44:18.220Z,135.00
2022-10-13T09:45:18.211Z,123.75
2022-10-13T09:46:18.195Z,101.25
2022-10-13T09:47:18.187Z,112.50
2022-10-13T09:48:18.174Z,106.88
2022-10-13T09:49:18.182Z,112.50
2022-10-13T09:50:18.182Z,101.25
2022-10-13T09:51:18.158Z,101.25
2022-10-13T09:52:18.451Z,101.25
2022-10-13T09:53:18.155Z,90.00
2022-10-13T09:54:18.177Z,95.62
2022-10-13T09:55:18.131Z,112.50
2022-10-13T09:56:18.133Z,118.12
2022-10-13T09:57:18.125Z,112.50
2022-10-13T09:58:18.114Z,101.25
2022-10-13T09:59:18.113Z,106.88
2022-10-13T10:00:18.115Z,129.38
2022-10-13T10:01:18.110Z,118.12
2022-10-13T10:02:20.272Z,118.12
2022-10-13T10:03:18.078Z,135.00
2022-10-13T10:04:19.204Z,157.50
2022-10-13T10:05:18.076Z,185.62
2022-10-13T10:06:18.098Z,236.25
2022-10-13T10:07:18.511Z,326.25
2022-10-13T10:08:18.071Z,354.38
2022-10-13T10:09:18.046Z,331.88
2022-10-13T10:10:18.038Z,371.25
2022-10-13T10:11:18.050Z,388.12
2022-10-13T10:12:18.031Z,438.75
2022-10-13T10:13:18.023Z,540.00
2022-10-13T10:14:18.020Z,545.62
2022-10-13T10:15:18.014Z,489.38
2022-10-13T10:16:18.022Z,511.88
2022-10-13T10:17:18.493Z,675.00
2022-10-13T10:18:17.994Z,753.75
2022-10-13T10:19:17.993Z,714.38
2022-10-13T10:20:17.978Z,551.25
2022-10-13T10:21:17.988Z,995.62
2022-10-13T10:22:17.979Z,641.25
2022-10-13T10:23:17.958Z,765.00
2022-10-13T10:24:18.082Z,950.62
2022-10-13T10:25:17.950Z,596.25
2022-10-13T10:26:23.042Z,720.00
2022-10-13T10:28:17.958Z,585.00
2022-10-13T10:29:17.923Z,624.38
2022-10-13T10:30:17.925Z,601.88
2022-10-13T10:31:17.903Z,551.25
2022-10-13T10:32:18.296Z,421.88
2022-10-13T10:33:17.885Z,354.38
2022-10-13T10:34:17.889Z,275.62
2022-10-13T10:35:17.884Z,253.12
2022-10-13T10:36:17.893Z,253.12
2022-10-13T10:37:21.287Z,247.50
2022-10-13T10:38:18.851Z,247.50
2022-10-13T10:39:17.866Z,253.12
2022-10-13T10:40:17.843Z,264.38
2022-10-13T10:41:17.838Z,241.88
2022-10-13T10:42:18.157Z,253.12
2022-10-13T10:43:17.826Z,253.12
2022-10-13T10:44:17.885Z,247.50
2022-10-13T10:45:17.813Z,241.88
2022-10-13T10:46:17.790Z,236.25
2022-10-13T10:47:19.734Z,247.50
2022-10-13T10:48:17.779Z,264.38
2022-10-13T10:49:17.789Z,247.50
2022-10-13T10:50:17.791Z,247.50
2022-10-13T10:51:17.758Z,275.62
2022-10-13T10:52:17.754Z,286.88
2022-10-13T10:53:17.762Z,303.75
2022-10-13T10:54:17.737Z,326.25
2022-10-13T10:55:17.746Z,343.12
2022-10-13T10:56:17.735Z,399.38
2022-10-13T10:57:18.071Z,427.50
2022-10-13T10:58:17.714Z,444.38
2022-10-13T10:59:17.714Z,534.38
2022-10-13T11:00:17.774Z,618.75
2022-10-13T11:01:17.773Z,787.50
2022-10-13T11:02:17.930Z,1085.62
2022-10-13T11:03:18.721Z,1299.38
2022-10-13T11:04:17.694Z,1468.12
2022-10-13T11:05:17.698Z,1580.62
2022-10-13T11:06:17.682Z,793.12
2022-10-13T11:07:17.693Z,849.38
2022-10-13T11:08:17.645Z,663.75
2022-10-13T11:09:17.625Z,759.38
2022-10-13T11:10:17.749Z,973.12
2022-10-13T11:11:17.626Z,984.38
2022-10-13T11:12:17.976Z,1400.62
2022-10-13T11:13:17.604Z,1974.38
2022-10-13T11:14:17.595Z,2154.38
2022-10-13T11:15:17.598Z,2103.75
2022-10-13T11:16:17.589Z,2176.88
2022-10-13T11:17:17.582Z,1496.25
2022-10-13T11:18:21.857Z,2221.88
2022-10-13T11:19:17.565Z,939.38
2022-10-13T11:20:17.559Z,2283.75
2022-10-13T11:21:17.573Z,1445.62
2022-10-13T11:22:17.928Z,2148.75
2022-10-13T11:23:17.538Z,2306.25
2022-10-13T11:24:17.537Z,1755.00
2022-10-13T11:25:17.525Z,2379.38
2022-10-13T11:26:17.539Z,2317.50
2022-10-13T11:27:17.516Z,1890.00
2022-10-13T11:28:17.671Z,2103.75
2022-10-13T11:29:17.530Z,2340.00
2022-10-13T11:30:17.540Z,2435.62
2022-10-13T11:31:17.513Z,2233.12
2022-10-13T11:32:17.853Z,2244.38
2022-10-13T11:33:17.474Z,866.25
2022-10-13T11:34:17.465Z,1203.75
2022-10-13T11:35:17.458Z,888.75
2022-10-13T11:36:17.474Z,894.38
2022-10-13T11:37:17.451Z,765.00
2022-10-13T11:38:18.017Z,781.88
2022-10-13T11:39:18.521Z,911.25
2022-10-13T11:40:17.425Z,1333.12
2022-10-13T11:41:17.425Z,1878.75
2022-10-13T11:42:17.563Z,736.88
2022-10-13T11:43:17.405Z,483.75
2022-10-13T11:44:17.451Z,410.62
2022-10-13T11:45:17.405Z,472.50
2022-10-13T11:46:17.405Z,618.75
2022-10-13T11:47:17.599Z,562.50
2022-10-13T11:48:17.387Z,466.88
2022-10-13T11:49:17.374Z,382.50
2022-10-13T11:50:17.362Z,343.12
2022-10-13T11:51:17.358Z,354.38
2022-10-13T11:52:17.667Z,360.00
2022-10-13T11:53:17.362Z,337.50
2022-10-13T11:54:17.345Z,315.00
2022-10-13T11:55:17.333Z,360.00
2022-10-13T11:56:17.330Z,382.50
2022-10-13T11:57:17.325Z,337.50
2022-10-13T11:58:17.320Z,286.88
2022-10-13T11:59:17.305Z,247.50
2022-10-13T12:00:17.293Z,213.75
2022-10-13T12:01:17.304Z,196.88
2022-10-13T12:02:19.237Z,174.38
2022-10-13T12:03:17.380Z,168.75
2022-10-13T12:04:17.291Z,174.38
2022-10-13T12:05:17.270Z,180.00
2022-10-13T12:06:17.264Z,168.75
2022-10-13T12:07:17.269Z,168.75
2022-10-13T12:08:17.249Z,180.00
2022-10-13T12:09:17.238Z,185.62
2022-10-13T12:10:17.237Z,191.25
2022-10-13T12:11:17.225Z,185.62
2022-10-13T12:12:17.586Z,180.00
2022-10-13T12:13:17.229Z,185.62
2022-10-13T12:14:17.212Z,191.25
2022-10-13T12:15:17.206Z,202.50
2022-10-13T12:16:17.192Z,219.38
2022-10-13T12:17:22.406Z,241.88
2022-10-13T12:18:19.185Z,241.88
2022-10-13T12:19:17.173Z,241.88
2022-10-13T12:20:17.165Z,281.25
2022-10-13T12:21:17.154Z,275.62
2022-10-13T12:22:17.150Z,343.12
2022-10-13T12:23:17.181Z,438.75
2022-10-13T12:24:17.134Z,556.88
2022-10-13T12:25:17.125Z,450.00
2022-10-13T12:26:17.129Z,489.38
2022-10-13T12:27:17.416Z,843.75
2022-10-13T12:28:17.185Z,613.12
2022-10-13T12:29:17.094Z,641.25
2022-10-13T12:30:17.082Z,990.00
2022-10-13T12:31:17.094Z,573.75
2022-10-13T12:32:17.082Z,641.25
2022-10-13T12:33:17.147Z,354.38
2022-10-13T12:34:17.072Z,320.62
2022-10-13T12:35:17.062Z,219.38
2022-10-13T12:36:17.046Z,168.75
2022-10-13T12:37:17.156Z,157.50
2022-10-13T12:38:17.037Z,163.12
2022-10-13T12:39:17.033Z,168.75
2022-10-13T12:40:17.030Z,157.50
2022-10-13T12:41:17.019Z,129.38
2022-10-13T12:42:17.033Z,112.50
2022-10-13T12:43:17.006Z,106.88
2022-10-13T12:44:17.001Z,101.25
2022-10-13T12:45:16.989Z,95.62
2022-10-13T12:46:17.007Z,95.62
2022-10-13T12:47:17.164Z,95.62
2022-10-13T12:48:17.041Z,90.00
2022-10-13T12:49:17.006Z,90.00
2022-10-13T12:50:16.971Z,90.00
2022-10-13T12:51:16.963Z,78.75
2022-10-13T12:52:17.000Z,78.75
2022-10-13T12:53:16.954Z,78.75
2022-10-13T12:54:16.942Z,78.75
2022-10-13T12:55:16.925Z,84.38
2022-10-13T12:56:16.910Z,84.38
2022-10-13T12:57:16.910Z,84.38
2022-10-13T12:58:16.905Z,78.75